Time;durP1;ratioP1;P1;durP2;ratioP2;P2;SDS_P1;SDS_P2;PMS_P1;PMS_P2;Temp;Humidity;BMP_temperature;BMP_pressure;BME280_temperature;BME280_humidity;BME280_pressure;Samples;Min_cycle;Max_cycle;Signal;HPM_P1;HPM_P2
2024/01/27 00:01:37;;;;;;;2.35;2.15;;;6.90;69.60;;;;;;5109550;28;20100;-76
2024/01/27 00:04:03;;;;;;;2.60;2.40;;;6.90;69.60;;;;;;5110525;28;20031;-75
2024/01/27 00:06:29;;;;;;;2.60;2.40;;;6.90;69.60;;;;;;5076584;28;20024;-77
2024/01/27 00:08:55;;;;;;;2.70;2.50;;;6.90;69.50;;;;;;5093670;28;20036;-75
2024/01/27 00:11:20;;;;;;;2.67;2.47;;;7.00;69.60;;;;;;5094395;28;20020;-76
2024/01/27 00:13:46;;;;;;;2.50;2.30;;;7.00;69.60;;;;;;5093530;28;20024;-76
2024/01/27 00:16:12;;;;;;;2.35;2.17;;;6.90;69.60;;;;;;5110241;28;20020;-76
2024/01/27 00:18:38;;;;;;;2.67;2.47;;;6.90;69.70;;;;;;5109494;28;20358;-75
2024/01/27 00:21:05;;;;;;;2.90;2.70;;;6.90;69.60;;;;;;5093712;28;20057;-76
2024/01/27 00:23:32;;;;;;;2.95;2.70;;;6.90;69.60;;;;;;5093467;28;20016;-76
2024/01/27 00:25:58;;;;;;;2.70;2.50;;;6.90;69.70;;;;;;5075706;28;20466;-76
2024/01/27 00:28:24;;;;;;;2.90;2.60;;;6.90;69.70;;;;;;5075880;28;20465;-76
2024/01/27 00:30:50;;;;;;;2.70;2.50;;;6.90;69.80;;;;;;5093707;28;20020;-76
2024/01/27 00:33:16;;;;;;;3.72;2.67;;;6.90;69.80;;;;;;5076041;28;20020;-75
2024/01/27 00:35:42;;;;;;;2.60;2.40;;;6.90;69.80;;;;;;5075833;28;20486;-76
2024/01/27 00:38:08;;;;;;;2.58;2.38;;;6.90;69.90;;;;;;5075492;28;20028;-77
2024/01/27 00:40:34;;;;;;;2.80;2.60;;;6.90;69.90;;;;;;5075444;28;20020;-76
2024/01/27 00:42:59;;;;;;;3.70;2.78;;;6.80;69.80;;;;;;5075360;28;20023;-75
2024/01/27 00:45:27;;;;;;;2.88;2.63;;;6.90;69.90;;;;;;5094890;28;20048;-76
2024/01/27 00:47:53;;;;;;;2.83;2.50;;;6.90;69.90;;;;;;5094087;28;20099;-76
2024/01/27 00:50:19;;;;;;;2.60;2.40;;;6.90;69.90;;;;;;5110729;28;20081;-75
2024/01/27 00:52:44;;;;;;;2.70;2.50;;;6.80;69.80;;;;;;5114006;28;20031;-75
2024/01/27 00:55:10;;;;;;;2.58;2.38;;;6.90;69.80;;;;;;5080672;28;20021;-77
2024/01/27 00:57:38;;;;;;;2.58;2.38;;;6.90;69.80;;;;;;5097803;28;20048;-75
2024/01/27 01:00:06;;;;;;;2.88;2.60;;;6.90;69.90;;;;;;5113189;28;20030;-77
2024/01/27 01:02:32;;;;;;;2.60;2.40;;;6.90;69.90;;;;;;5097096;28;20020;-75
2024/01/27 01:04:58;;;;;;;2.70;2.50;;;6.90;69.90;;;;;;5112718;28;20127;-75
2024/01/27 01:07:24;;;;;;;2.88;2.60;;;6.90;69.90;;;;;;5097058;28;20035;-75
2024/01/27 01:09:49;;;;;;;2.97;2.55;;;6.90;69.90;;;;;;5096988;28;20152;-76
2024/01/27 01:12:15;;;;;;;3.00;2.67;;;6.90;69.80;;;;;;5096903;28;20507;-75
2024/01/27 01:14:42;;;;;;;2.65;2.45;;;6.90;69.80;;;;;;5096575;28;20073;-76
2024/01/27 01:17:08;;;;;;;3.05;2.65;;;6.90;69.90;;;;;;5078634;28;20067;-76
2024/01/27 01:19:33;;;;;;;2.65;2.45;;;6.90;69.90;;;;;;5096420;28;20052;-75
2024/01/27 01:21:59;;;;;;;2.42;2.25;;;6.90;69.90;;;;;;5096951;28;20024;-75
2024/01/27 01:24:25;;;;;;;2.70;2.50;;;6.90;70.00;;;;;;5112245;28;20020;-75
2024/01/27 01:26:51;;;;;;;2.55;2.35;;;6.90;69.90;;;;;;5096468;28;20024;-76
2024/01/27 01:29:16;;;;;;;3.20;2.90;;;6.80;69.90;;;;;;5096195;28;20385;-76
2024/01/27 01:31:43;;;;;;;2.55;2.35;;;6.80;69.90;;;;;;5112613;28;20024;-76
2024/01/27 01:34:08;;;;;;;2.92;2.63;;;6.80;70.00;;;;;;5112112;28;20035;-75
2024/01/27 01:36:34;;;;;;;2.67;2.47;;;6.80;70.10;;;;;;5096367;28;20020;-75
2024/01/27 01:39:00;;;;;;;2.50;2.30;;;6.80;70.20;;;;;;5078071;28;20469;-76
2024/01/27 01:41:26;;;;;;;2.40;2.20;;;6.80;70.20;;;;;;5111954;28;20020;-77
2024/01/27 01:43:51;;;;;;;2.55;2.35;;;6.80;70.20;;;;;;5096153;28;20022;-75
2024/01/27 01:46:18;;;;;;;2.55;2.35;;;6.70;70.10;;;;;;5111996;28;20042;-75
2024/01/27 01:48:44;;;;;;;2.65;2.45;;;6.80;70.20;;;;;;5095755;28;20071;-75
2024/01/27 01:51:11;;;;;;;2.70;2.50;;;6.80;70.10;;;;;;5112116;28;20350;-74
2024/01/27 01:53:37;;;;;;;2.78;2.40;;;6.80;70.10;;;;;;5078168;28;20050;-75
2024/01/27 01:56:04;;;;;;;2.50;2.30;;;6.80;70.10;;;;;;5095453;28;20546;-75
2024/01/27 01:58:34;;;;;;;3.17;2.88;;;6.80;70.10;;;;;;5077538;28;20048;-75
2024/01/27 02:01:02;;;;;;;2.70;2.50;;;6.80;70.10;;;;;;5096116;28;20400;-75
2024/01/27 02:03:28;;;;;;;2.45;2.30;;;6.80;70.20;;;;;;5110431;28;20027;-75
2024/01/27 02:05:55;;;;;;;2.90;2.70;;;6.80;70.20;;;;;;5095858;28;20020;-75
2024/01/27 02:08:21;;;;;;;2.92;2.50;;;6.80;70.10;;;;;;5077302;28;20020;-76
2024/01/27 02:10:47;;;;;;;2.53;2.33;;;6.80;70.10;;;;;;5111787;28;20024;-76
2024/01/27 02:13:21;;;;;;;2.60;2.40;;;6.80;70.10;;;;;;5111511;28;20043;-75
2024/01/27 02:15:48;;;;;;;3.17;2.85;;;6.80;70.20;;;;;;5077535;28;20115;-77
2024/01/27 02:18:14;;;;;;;2.75;2.55;;;6.80;70.20;;;;;;5077376;28;20028;-71
2024/01/27 02:20:40;;;;;;;3.05;2.75;;;6.80;70.20;;;;;;5096169;28;20031;-73
2024/01/27 02:23:06;;;;;;;2.70;2.50;;;6.80;70.20;;;;;;5112149;28;20024;-74
2024/01/27 02:25:35;;;;;;;2.97;2.63;;;6.80;70.20;;;;;;5077441;28;20377;-74
2024/01/27 02:28:04;;;;;;;3.00;2.70;;;6.80;70.10;;;;;;5095582;28;20021;-74
2024/01/27 02:30:30;;;;;;;3.08;2.70;;;6.80;70.10;;;;;;5095364;28;20020;-74
2024/01/27 02:32:57;;;;;;;2.80;2.60;;;6.80;70.10;;;;;;5077206;28;20361;-73
2024/01/27 02:35:23;;;;;;;3.45;2.80;;;6.80;70.10;;;;;;5077814;28;20024;-73
2024/01/27 02:37:49;;;;;;;2.92;2.65;;;6.80;70.10;;;;;;5077112;28;20016;-73
2024/01/27 02:40:15;;;;;;;2.72;2.53;;;6.80;70.10;;;;;;5094891;28;20366;-74
2024/01/27 02:42:44;;;;;;;3.00;2.70;;;6.70;70.20;;;;;;5111539;28;20064;-73
2024/01/27 02:45:13;;;;;;;3.40;3.08;;;6.80;70.30;;;;;;5077409;28;20023;-73
2024/01/27 02:47:39;;;;;;;2.90;2.60;;;6.80;70.30;;;;;;5094940;28;20036;-73
2024/01/27 02:50:09;;;;;;;2.85;2.55;;;6.80;70.30;;;;;;5094985;28;20023;-74
2024/01/27 02:52:34;;;;;;;2.75;2.50;;;6.80;70.20;;;;;;5076713;28;20153;-73
2024/01/27 02:55:00;;;;;;;3.00;2.60;;;6.80;70.20;;;;;;5094648;28;20043;-73
2024/01/27 02:57:27;;;;;;;2.80;2.60;;;6.80;70.20;;;;;;5094716;28;20051;-74
2024/01/27 02:59:52;;;;;;;2.97;2.70;;;6.80;70.10;;;;;;5094344;28;20020;-73
2024/01/27 03:02:18;;;;;;;2.65;2.45;;;6.90;70.10;;;;;;5110469;28;20020;-74
2024/01/27 03:04:44;;;;;;;3.00;2.70;;;6.90;70.10;;;;;;5110439;28;20480;-74
2024/01/27 03:07:10;;;;;;;2.70;2.50;;;6.80;70.10;;;;;;5094863;28;20461;-73
2024/01/27 03:09:36;;;;;;;2.90;2.60;;;6.90;70.10;;;;;;5110335;28;20553;-74
2024/01/27 03:12:02;;;;;;;2.97;2.70;;;6.90;70.10;;;;;;5094662;28;20024;-74
2024/01/27 03:14:28;;;;;;;2.90;2.60;;;6.90;70.10;;;;;;5094253;28;20095;-75
2024/01/27 03:16:54;;;;;;;2.85;2.65;;;6.90;70.10;;;;;;5094463;28;20024;-74
2024/01/27 03:19:20;;;;;;;3.05;2.70;;;6.90;70.10;;;;;;5076228;28;20016;-75
2024/01/27 03:21:46;;;;;;;3.03;2.78;;;6.90;70.10;;;;;;5075878;28;20411;-74
2024/01/27 03:24:12;;;;;;;3.22;2.83;;;6.90;70.10;;;;;;5110140;28;20016;-73
2024/01/27 03:26:38;;;;;;;3.03;2.72;;;6.90;70.00;;;;;;5094685;28;20024;-74
2024/01/27 03:29:03;;;;;;;2.83;2.60;;;6.90;70.00;;;;;;5094292;28;20058;-74
2024/01/27 03:31:34;;;;;;;3.20;2.90;;;6.90;70.00;;;;;;5076965;28;20024;-74
2024/01/27 03:34:01;;;;;;;3.13;2.72;;;6.90;70.00;;;;;;5075999;28;20016;-74
2024/01/27 03:36:27;;;;;;;3.05;2.75;;;6.90;70.00;;;;;;5076063;28;20028;-74
2024/01/27 03:38:52;;;;;;;3.13;2.83;;;6.90;70.00;;;;;;5076005;28;20028;-74
2024/01/27 03:41:18;;;;;;;3.00;2.70;;;6.90;70.00;;;;;;5093846;28;20028;-76
2024/01/27 03:43:44;;;;;;;3.55;3.08;;;6.90;70.00;;;;;;5076006;28;20366;-76
2024/01/27 03:46:10;;;;;;;3.10;2.75;;;6.90;70.00;;;;;;5093862;28;20059;-76
2024/01/27 03:48:36;;;;;;;3.50;3.17;;;6.90;70.00;;;;;;5076537;28;20484;-76
2024/01/27 03:51:02;;;;;;;3.20;2.90;;;6.90;70.00;;;;;;5109747;28;20066;-75
2024/01/27 03:53:28;;;;;;;3.35;3.05;;;6.90;70.00;;;;;;5094616;28;20042;-76
2024/01/27 03:55:54;;;;;;;4.13;3.10;;;6.90;70.00;;;;;;5093622;28;20020;-74
2024/01/27 03:58:20;;;;;;;3.40;3.10;;;6.90;69.90;;;;;;5110071;28;20048;-75
2024/01/27 04:00:46;;;;;;;3.85;3.45;;;6.80;69.90;;;;;;5093567;28;20020;-76
2024/01/27 04:03:12;;;;;;;4.85;3.70;;;6.90;70.00;;;;;;5093877;28;20034;-74
2024/01/27 04:05:38;;;;;;;4.00;3.50;;;6.90;70.00;;;;;;5076245;28;20020;-74
2024/01/27 04:08:06;;;;;;;4.50;3.70;;;6.80;70.50;;;;;;5109782;28;20141;-73
2024/01/27 04:10:32;;;;;;;3.78;3.33;;;6.80;70.00;;;;;;5076217;28;20016;-74
2024/01/27 04:12:57;;;;;;;4.72;3.97;;;6.80;70.00;;;;;;5109717;28;20366;-75
2024/01/27 04:15:23;;;;;;;4.97;4.15;;;6.80;70.00;;;;;;5094825;28;20362;-77
2024/01/27 04:17:49;;;;;;;5.55;4.68;;;6.80;70.00;;;;;;5110160;28;20486;-76
2024/01/27 04:20:15;;;;;;;4.43;3.97;;;6.80;70.60;;;;;;5094673;28;20095;-75
2024/01/27 04:22:41;;;;;;;4.47;3.88;;;6.80;70.10;;;;;;5110184;28;20020;-76
2024/01/27 04:25:07;;;;;;;5.53;4.60;;;6.80;70.20;;;;;;5109907;28;20055;-75
2024/01/27 04:27:38;;;;;;;4.97;4.47;;;6.70;70.10;;;;;;5079283;28;20035;-74
2024/01/27 04:30:06;;;;;;;4.70;4.10;;;6.70;70.30;;;;;;5079965;28;20366;-73
2024/01/27 04:32:31;;;;;;;5.03;4.43;;;6.70;70.10;;;;;;5079321;28;20026;-74
2024/01/27 04:34:57;;;;;;;5.40;4.10;;;6.70;70.20;;;;;;5079469;28;20046;-73
2024/01/27 04:37:23;;;;;;;5.05;3.83;;;6.70;70.20;;;;;;5113231;28;20122;-74
2024/01/27 04:39:51;;;;;;;5.05;3.92;;;6.70;70.30;;;;;;5080511;28;20028;-74
2024/01/27 04:42:17;;;;;;;5.50;4.28;;;6.70;70.20;;;;;;5097214;28;20016;-75
2024/01/27 04:44:43;;;;;;;6.60;4.72;;;6.70;70.20;;;;;;5097371;28;20475;-74
2024/01/27 04:47:08;;;;;;;6.38;4.50;;;6.70;70.20;;;;;;5097459;28;20107;-74
2024/01/27 04:49:34;;;;;;;5.57;4.65;;;6.70;70.20;;;;;;5096897;28;20028;-73
2024/01/27 04:52:00;;;;;;;6.75;4.82;;;6.70;70.20;;;;;;5079122;28;20031;-74
2024/01/27 04:54:26;;;;;;;5.47;3.97;;;6.70;70.10;;;;;;5113457;28;20457;-75
2024/01/27 04:56:52;;;;;;;5.70;4.38;;;6.70;70.10;;;;;;5078662;28;20106;-73
2024/01/27 04:59:17;;;;;;;4.72;3.88;;;6.70;70.20;;;;;;5097463;28;20368;-74
2024/01/27 05:01:47;;;;;;;4.95;4.28;;;6.60;70.20;;;;;;5097646;28;20016;-74
2024/01/27 05:04:13;;;;;;;6.15;4.80;;;6.60;70.20;;;;;;5078825;28;20019;-74
2024/01/27 05:06:43;;;;;;;4.93;4.35;;;6.60;70.20;;;;;;5096989;28;20031;-74
2024/01/27 05:09:09;;;;;;;5.28;4.20;;;6.60;70.30;;;;;;5078865;28;20036;-75
2024/01/27 05:11:34;;;;;;;5.15;4.05;;;6.60;70.30;;;;;;5097022;28;20022;-75
2024/01/27 05:14:00;;;;;;;5.18;4.32;;;6.60;70.30;;;;;;5096820;28;20058;-74
2024/01/27 05:16:27;;;;;;;5.53;4.53;;;6.60;70.30;;;;;;5078617;28;20027;-75
2024/01/27 05:18:53;;;;;;;5.00;4.38;;;6.60;70.20;;;;;;5079126;28;20024;-73
2024/01/27 05:21:19;;;;;;;5.80;4.40;;;6.70;70.30;;;;;;5112363;28;20027;-74
2024/01/27 05:23:48;;;;;;;6.10;5.22;;;6.70;70.30;;;;;;5078497;28;20027;-74
2024/01/27 05:26:13;;;;;;;4.95;4.10;;;6.70;70.30;;;;;;5096748;28;20027;-74
2024/01/27 05:28:42;;;;;;;5.38;4.50;;;6.70;70.30;;;;;;5078201;28;20051;-75
2024/01/27 05:31:08;;;;;;;5.03;4.40;;;6.70;70.30;;;;;;5096336;28;20023;-75
2024/01/27 05:33:35;;;;;;;4.97;4.25;;;6.70;70.40;;;;;;5096465;28;20022;-76
2024/01/27 05:36:00;;;;;;;4.75;4.05;;;6.70;70.20;;;;;;5096060;28;20024;-75
2024/01/27 05:38:28;;;;;;;5.93;4.25;;;6.70;70.20;;;;;;5096039;28;20051;-76
2024/01/27 05:40:54;;;;;;;5.13;4.20;;;6.70;70.20;;;;;;5096565;28;20073;-76
2024/01/27 05:43:20;;;;;;;4.65;3.95;;;6.70;70.20;;;;;;5095942;28;20020;-78
2024/01/27 05:45:46;;;;;;;5.28;4.50;;;6.70;70.20;;;;;;5096208;28;20438;-78
2024/01/27 05:48:12;;;;;;;5.35;4.13;;;6.70;70.10;;;;;;5096240;28;20028;-77
2024/01/27 05:50:40;;;;;;;5.20;4.55;;;6.80;70.10;;;;;;5096222;28;20031;-77
2024/01/27 05:53:06;;;;;;;4.90;4.35;;;6.70;70.10;;;;;;5097143;28;20028;-77
2024/01/27 05:55:33;;;;;;;4.18;3.72;;;6.70;70.10;;;;;;5079821;28;20136;-77
2024/01/27 05:57:59;;;;;;;5.70;4.40;;;6.80;70.10;;;;;;5097161;28;20468;-77
2024/01/27 06:00:25;;;;;;;5.10;4.22;;;6.70;70.10;;;;;;5113275;28;20118;-76
2024/01/27 06:02:51;;;;;;;5.18;4.13;;;6.70;70.10;;;;;;5097465;28;20060;-78
2024/01/27 06:05:17;;;;;;;4.90;4.20;;;6.80;70.10;;;;;;5097446;28;20012;-76
2024/01/27 06:07:43;;;;;;;4.82;4.18;;;6.80;70.10;;;;;;5111694;28;20032;-76
2024/01/27 06:10:09;;;;;;;4.65;3.83;;;6.80;70.10;;;;;;5111727;28;20049;-72
2024/01/27 06:12:36;;;;;;;5.38;4.55;;;6.70;70.10;;;;;;5095744;28;20024;-74
2024/01/27 06:15:02;;;;;;;4.38;3.95;;;6.80;70.10;;;;;;5095329;28;20020;-74
2024/01/27 06:17:28;;;;;;;5.22;4.13;;;6.80;70.10;;;;;;5112114;28;20123;-74
2024/01/27 06:19:57;;;;;;;4.70;4.00;;;6.80;70.10;;;;;;5095299;28;20514;-74
2024/01/27 06:22:23;;;;;;;5.50;4.40;;;6.80;70.00;;;;;;5111184;28;20416;-73
2024/01/27 06:24:48;;;;;;;4.50;4.05;;;6.80;70.00;;;;;;5111887;28;20111;-74
2024/01/27 06:27:14;;;;;;;5.53;4.45;;;6.80;70.00;;;;;;5095111;28;20035;-74
2024/01/27 06:29:42;;;;;;;5.70;4.80;;;6.80;70.00;;;;;;5111009;28;20093;-73
2024/01/27 06:32:07;;;;;;;6.18;4.82;;;6.80;70.00;;;;;;5076811;28;20024;-74
2024/01/27 06:34:33;;;;;;;5.65;4.50;;;6.80;70.00;;;;;;5077510;28;20370;-78
2024/01/27 06:36:59;;;;;;;7.15;4.63;;;6.80;69.90;;;;;;5095207;28;20039;-80
2024/01/27 06:39:25;;;;;;;6.32;4.75;;;6.80;70.00;;;;;;5095324;28;20465;-79
2024/01/27 06:41:56;;;;;;;6.38;5.20;;;6.80;70.00;;;;;;5095233;28;20103;-79
2024/01/27 06:44:22;;;;;;;7.22;5.10;;;6.80;70.00;;;;;;5094637;28;20016;-76
2024/01/27 06:46:49;;;;;;;7.50;5.32;;;6.80;70.00;;;;;;5096140;28;20027;-77
2024/01/27 06:49:19;;;;;;;6.72;5.60;;;6.80;70.00;;;;;;5076555;28;20477;-80
2024/01/27 06:52:00;;;;;;;;;;;;;;;;;;;;;
2024/01/27 06:54:28;;;;;;;6.80;5.15;;;6.90;70.00;;;;;;5096357;28;20457;-71
2024/01/27 06:56:54;;;;;;;7.50;5.53;;;6.80;69.90;;;;;;5076273;28;20020;-79
2024/01/27 07:06:08;;;;;;;7.88;5.65;;;6.90;69.90;;;;;;5027425;28;20023;-74
2024/01/27 07:08:33;;;;;;;6.03;4.90;;;6.90;69.90;;;;;;5076461;28;20369;-74
2024/01/27 07:10:59;;;;;;;7.45;5.50;;;6.90;69.90;;;;;;5076570;28;20024;-75
2024/01/27 07:13:26;;;;;;;7.00;5.43;;;6.90;70.00;;;;;;5097413;28;20027;-78
2024/01/27 07:15:52;;;;;;;7.15;5.50;;;6.90;70.00;;;;;;5095648;28;20016;-77
2024/01/27 07:18:19;;;;;;;7.38;5.57;;;6.90;70.00;;;;;;5076336;28;20477;-74
2024/01/27 07:20:45;;;;;;;7.38;5.32;;;6.90;70.00;;;;;;5076881;28;20016;-76
2024/01/27 07:23:11;;;;;;;6.72;5.15;;;6.90;69.90;;;;;;5076275;28;20073;-74
2024/01/27 07:25:36;;;;;;;7.72;5.55;;;6.90;69.90;;;;;;5076148;28;20020;-73
2024/01/27 07:28:02;;;;;;;6.35;4.82;;;6.90;69.80;;;;;;5078414;28;20032;-79
2024/01/27 07:30:29;;;;;;;6.90;5.70;;;6.90;69.80;;;;;;5080090;28;20023;-73
2024/01/27 07:32:55;;;;;;;6.13;5.15;;;6.90;69.80;;;;;;5076304;28;20021;-75
2024/01/27 07:35:21;;;;;;;6.75;5.30;;;7.00;69.80;;;;;;5076467;28;20024;-74
2024/01/27 07:37:47;;;;;;;6.25;4.78;;;6.90;69.70;;;;;;5076049;28;20124;-73
2024/01/27 07:40:12;;;;;;;6.40;5.30;;;6.90;69.80;;;;;;5094602;28;20016;-72
2024/01/27 07:42:38;;;;;;;5.78;4.72;;;7.00;69.80;;;;;;5093863;28;20028;-76
2024/01/27 07:45:08;;;;;;;5.43;4.25;;;7.00;69.80;;;;;;5076009;28;20065;-71
2024/01/27 07:47:34;;;;;;;5.25;4.30;;;7.00;69.80;;;;;;5075880;28;20028;-70
2024/01/27 07:50:00;;;;;;;5.47;4.10;;;7.10;69.80;;;;;;5076001;28;20335;-76
2024/01/27 07:52:26;;;;;;;6.13;4.57;;;7.10;69.80;;;;;;5093736;28;20027;-72
2024/01/27 07:54:52;;;;;;;5.70;4.40;;;7.10;69.70;;;;;;5075840;28;20037;-82
2024/01/27 07:57:17;;;;;;;5.18;4.20;;;7.10;69.60;;;;;;5075476;28;20036;-74
2024/01/27 07:59:43;;;;;;;5.63;4.53;;;7.20;69.60;;;;;;5076411;28;20020;-77
2024/01/27 08:02:09;;;;;;;5.03;3.88;;;7.20;69.50;;;;;;5080605;28;20031;-84
2024/01/27 08:04:35;;;;;;;5.22;4.20;;;7.20;69.40;;;;;;5079852;28;20024;-74
2024/01/27 08:07:06;;;;;;;5.10;4.10;;;7.20;69.40;;;;;;5098291;28;20022;-72
2024/01/27 08:09:31;;;;;;;4.90;4.13;;;7.10;69.40;;;;;;5079931;28;20020;-71
2024/01/27 08:12:00;;;;;;;4.43;3.80;;;7.10;69.40;;;;;;5080086;28;20024;-73
2024/01/27 08:14:32;;;;;;;4.50;3.72;;;7.10;69.50;;;;;;5097516;28;20069;-72
2024/01/27 08:16:58;;;;;;;4.20;3.72;;;7.10;69.50;;;;;;5063619;28;20020;-74
2024/01/27 08:19:24;;;;;;;4.75;3.90;;;7.10;69.60;;;;;;5079343;28;20020;-72
2024/01/27 08:21:50;;;;;;;4.63;3.70;;;7.10;69.70;;;;;;5079492;28;20031;-74
2024/01/27 08:24:16;;;;;;;4.20;3.60;;;7.10;69.60;;;;;;5097549;28;20016;-70
2024/01/27 08:26:42;;;;;;;4.45;3.40;;;7.10;69.50;;;;;;5098142;28;20024;-72
2024/01/27 08:29:09;;;;;;;4.38;3.63;;;7.10;69.50;;;;;;5079526;28;20024;-74
2024/01/27 08:31:35;;;;;;;3.80;3.33;;;7.20;69.50;;;;;;5079882;28;20396;-74
2024/01/27 08:34:01;;;;;;;4.15;3.50;;;7.20;69.50;;;;;;5079280;28;20024;-73
2024/01/27 08:36:26;;;;;;;4.07;3.63;;;7.20;69.50;;;;;;5097647;28;20107;-73
2024/01/27 08:38:52;;;;;;;4.00;3.40;;;7.20;69.50;;;;;;5080040;28;20028;-73
2024/01/27 08:41:18;;;;;;;4.45;3.42;;;7.30;69.40;;;;;;5078996;28;20453;-72
2024/01/27 08:43:44;;;;;;;4.03;3.47;;;7.40;69.40;;;;;;5079360;28;20019;-73
2024/01/27 08:46:11;;;;;;;3.85;3.38;;;7.40;69.30;;;;;;5097134;28;20339;-74
2024/01/27 08:48:38;;;;;;;4.50;3.90;;;7.40;69.20;;;;;;5079012;28;20039;-75
2024/01/27 08:57:38;;;;;;;4.43;4.00;;;7.50;69.00;;;;;;5097436;28;20389;-74
2024/01/27 09:00:04;;;;;;;5.13;4.20;;;7.40;68.90;;;;;;5079349;28;20024;-73
2024/01/27 09:02:30;;;;;;;5.18;4.15;;;7.40;68.90;;;;;;5097688;28;20085;-73
2024/01/27 09:04:56;;;;;;;5.00;3.95;;;7.40;69.00;;;;;;5097131;28;20024;-72
2024/01/27 09:07:23;;;;;;;5.10;4.30;;;7.40;69.00;;;;;;5079509;28;20032;-72
2024/01/27 09:09:51;;;;;;;4.90;4.20;;;7.40;69.10;;;;;;5078523;28;20031;-75
2024/01/27 09:12:17;;;;;;;4.78;4.30;;;7.50;69.10;;;;;;5096177;28;20019;-73
2024/01/27 09:14:42;;;;;;;4.65;4.15;;;7.50;69.00;;;;;;5096833;28;20020;-72
2024/01/27 09:17:08;;;;;;;5.78;4.50;;;7.50;68.80;;;;;;5079020;28;20511;-71
2024/01/27 09:19:34;;;;;;;4.57;3.83;;;7.60;68.80;;;;;;5078740;28;20020;-72
2024/01/27 09:22:00;;;;;;;5.40;4.15;;;7.50;68.80;;;;;;5078994;28;20452;-73
2024/01/27 09:24:25;;;;;;;4.97;3.70;;;7.50;68.80;;;;;;5078474;28;20020;-74
2024/01/27 09:26:51;;;;;;;5.10;4.18;;;7.60;68.80;;;;;;5096540;28;20024;-73
2024/01/27 09:29:17;;;;;;;4.40;4.00;;;7.60;68.80;;;;;;5078177;28;20055;-72
2024/01/27 09:31:43;;;;;;;4.13;3.72;;;7.60;68.80;;;;;;5096421;28;20020;-71
2024/01/27 09:34:09;;;;;;;4.30;3.72;;;7.70;68.80;;;;;;5077993;28;20031;-75
2024/01/27 09:36:35;;;;;;;4.95;3.92;;;7.70;68.70;;;;;;5078405;28;20031;-72
2024/01/27 09:39:01;;;;;;;5.10;3.90;;;7.70;68.70;;;;;;5096697;28;20388;-75
2024/01/27 09:41:34;;;;;;;4.82;3.83;;;7.70;68.50;;;;;;5078042;28;20443;-69
2024/01/27 09:44:04;;;;;;;4.93;4.18;;;7.80;68.50;;;;;;5096834;28;20028;-71
2024/01/27 09:46:31;;;;;;;3.92;3.50;;;7.80;68.40;;;;;;5096090;28;20106;-71
2024/01/27 09:48:58;;;;;;;4.53;3.60;;;7.80;68.30;;;;;;5095838;28;20039;-70
2024/01/27 09:51:25;;;;;;;3.90;3.47;;;7.80;68.30;;;;;;5077790;28;20051;-71
2024/01/27 09:53:52;;;;;;;4.18;3.40;;;7.80;68.30;;;;;;5077893;28;20031;-71
2024/01/27 09:56:18;;;;;;;4.25;3.38;;;7.80;68.30;;;;;;5095645;28;20035;-72
2024/01/27 09:58:45;;;;;;;3.30;3.00;;;7.80;68.20;;;;;;5096126;28;20568;-71
2024/01/27 10:01:12;;;;;;;4.70;3.60;;;7.80;68.20;;;;;;5095904;28;20020;-71
2024/01/27 10:03:41;;;;;;;3.78;3.35;;;7.90;68.20;;;;;;5077757;28;20070;-71
2024/01/27 10:06:11;;;;;;;3.38;2.95;;;7.90;68.10;;;;;;5077698;28;20371;-70
2024/01/27 10:08:37;;;;;;;4.32;3.53;;;7.90;68.10;;;;;;5096272;28;20063;-71
2024/01/27 10:11:10;;;;;;;3.88;3.45;;;7.90;68.10;;;;;;5077561;28;20062;-71
2024/01/27 10:13:36;;;;;;;4.07;3.50;;;7.90;68.00;;;;;;5077467;28;20113;-72
2024/01/27 10:16:05;;;;;;;3.45;3.08;;;7.90;67.90;;;;;;5095644;28;20016;-73
2024/01/27 10:18:31;;;;;;;4.07;3.63;;;7.90;67.90;;;;;;5095243;28;20469;-70
2024/01/27 10:20:58;;;;;;;4.03;3.38;;;7.90;67.80;;;;;;5095503;28;20353;-70
2024/01/27 10:23:24;;;;;;;3.83;3.30;;;8.00;67.80;;;;;;5076242;28;20051;-69
2024/01/27 10:25:50;;;;;;;4.50;3.78;;;7.90;67.80;;;;;;5077406;28;20089;-70
2024/01/27 10:28:17;;;;;;;4.00;3.60;;;7.90;67.80;;;;;;5095256;28;20035;-70
2024/01/27 10:30:43;;;;;;;3.83;3.30;;;7.90;67.70;;;;;;5077148;28;20027;-71
2024/01/27 10:33:16;;;;;;;4.15;3.50;;;7.90;67.80;;;;;;5076758;28;20035;-71
2024/01/27 10:35:43;;;;;;;3.47;3.03;;;7.80;67.70;;;;;;5077902;28;20055;-72
2024/01/27 10:38:09;;;;;;;4.20;3.67;;;7.80;67.80;;;;;;5077042;28;20066;-72
2024/01/27 10:40:35;;;;;;;3.33;3.00;;;7.80;67.80;;;;;;5077735;28;20111;-72
2024/01/27 10:43:08;;;;;;;3.45;3.10;;;7.80;67.80;;;;;;5095743;28;20077;-70
2024/01/27 10:45:39;;;;;;;3.40;3.10;;;7.80;67.80;;;;;;5094699;28;20020;-72
2024/01/27 10:48:07;;;;;;;4.03;3.38;;;7.70;67.80;;;;;;5076622;28;20059;-71
2024/01/27 10:50:38;;;;;;;3.65;3.20;;;7.70;67.90;;;;;;5076640;28;20027;-71
2024/01/27 10:53:08;;;;;;;4.32;3.65;;;7.80;67.90;;;;;;5076611;28;20031;-70
2024/01/27 10:55:35;;;;;;;4.15;3.53;;;7.80;67.80;;;;;;5094510;28;20020;-71
2024/01/27 10:58:02;;;;;;;4.03;3.50;;;7.70;67.80;;;;;;5076761;28;20052;-73
2024/01/27 11:00:30;;;;;;;4.40;3.65;;;7.80;67.80;;;;;;5094797;28;20012;-71
2024/01/27 11:03:01;;;;;;;4.20;3.47;;;7.80;67.80;;;;;;5076543;28;20028;-70
2024/01/27 11:05:31;;;;;;;3.50;3.20;;;7.80;67.80;;;;;;5094490;28;20024;-70
2024/01/27 11:07:59;;;;;;;3.80;3.33;;;7.70;67.70;;;;;;5076915;28;20450;-71
2024/01/27 11:10:26;;;;;;;5.38;3.72;;;7.70;67.70;;;;;;5076156;28;20059;-71
2024/01/27 11:12:55;;;;;;;4.03;3.40;;;7.70;67.70;;;;;;5076400;28;20331;-70
2024/01/27 11:15:21;;;;;;;4.38;3.78;;;7.70;67.70;;;;;;5094523;28;20393;-71
2024/01/27 11:17:47;;;;;;;4.20;3.75;;;7.70;67.70;;;;;;5094744;28;20054;-71
2024/01/27 11:20:16;;;;;;;4.22;3.50;;;7.60;67.70;;;;;;5094347;28;20066;-71
2024/01/27 11:22:43;;;;;;;3.75;3.20;;;7.60;68.30;;;;;;5094480;28;20020;-72
2024/01/27 11:25:12;;;;;;;4.25;3.72;;;7.60;67.80;;;;;;5094330;28;20068;-70
2024/01/27 11:27:39;;;;;;;4.72;3.60;;;7.60;67.90;;;;;;5094315;28;20039;-69
2024/01/27 11:30:23;;;;;;;4.28;3.58;;;7.50;67.90;;;;;;5076142;28;20031;-70
2024/01/27 11:32:49;;;;;;;4.65;3.55;;;7.50;67.90;;;;;;5076207;28;20481;-71
2024/01/27 11:35:17;;;;;;;4.40;3.97;;;7.50;67.90;;;;;;5076272;28;20070;-72
2024/01/27 11:37:43;;;;;;;4.13;3.67;;;7.50;67.90;;;;;;5094233;28;20059;-71
2024/01/27 11:40:10;;;;;;;4.10;3.63;;;7.50;68.00;;;;;;5075925;28;20059;-71
2024/01/27 11:42:36;;;;;;;4.82;4.30;;;7.60;68.00;;;;;;5075874;28;20023;-75
2024/01/27 11:45:02;;;;;;;4.68;3.88;;;7.60;68.00;;;;;;5093890;28;20469;-73
2024/01/27 11:47:29;;;;;;;4.20;3.80;;;7.50;67.90;;;;;;5094209;28;20073;-74
2024/01/27 11:49:57;;;;;;;5.40;4.20;;;7.60;68.00;;;;;;5093447;28;20362;-75
2024/01/27 11:52:24;;;;;;;4.20;3.58;;;7.50;67.90;;;;;;5075875;28;20031;-74
2024/01/27 11:54:59;;;;;;;5.70;4.43;;;7.60;67.90;;;;;;5076411;28;20028;-73
2024/01/27 11:57:26;;;;;;;6.10;4.35;;;7.50;67.90;;;;;;5093607;28;20097;-75
2024/01/27 11:59:53;;;;;;;5.68;4.70;;;7.50;67.90;;;;;;5075552;28;20025;-73
2024/01/27 12:02:20;;;;;;;5.57;4.45;;;7.50;67.90;;;;;;5093603;28;20045;-75
2024/01/27 12:04:46;;;;;;;5.43;4.78;;;7.50;68.00;;;;;;5093537;28;20020;-74
2024/01/27 12:07:12;;;;;;;5.00;4.18;;;7.50;68.10;;;;;;5094102;28;20028;-74
2024/01/27 12:09:38;;;;;;;5.75;4.85;;;7.40;68.10;;;;;;5093590;28;20016;-74
2024/01/27 12:12:07;;;;;;;6.28;4.90;;;7.50;68.20;;;;;;5093571;28;20039;-73
2024/01/27 12:14:48;;;;;;;5.45;4.47;;;7.50;68.20;;;;;;5076576;28;20103;-74
2024/01/27 12:17:14;;;;;;;6.30;4.85;;;7.40;68.10;;;;;;5076758;28;20122;-74
2024/01/27 12:19:49;;;;;;;5.32;4.50;;;7.50;68.20;;;;;;5076454;28;20024;-74
2024/01/27 12:22:22;;;;;;;5.63;4.50;;;7.40;68.10;;;;;;5094848;28;20103;-73
2024/01/27 12:24:48;;;;;;;5.78;4.70;;;7.40;68.20;;;;;;5075484;28;20105;-74
2024/01/27 12:27:14;;;;;;;5.60;4.55;;;7.40;68.20;;;;;;5093661;28;20055;-76
2024/01/27 12:29:43;;;;;;;5.55;4.50;;;7.40;68.20;;;;;;5075535;28;20020;-74
2024/01/27 12:32:09;;;;;;;5.32;4.53;;;7.40;68.30;;;;;;5075538;28;20016;-73
2024/01/27 12:34:43;;;;;;;5.57;4.88;;;7.40;68.30;;;;;;5076033;28;20024;-74
2024/01/27 12:37:11;;;;;;;6.13;5.10;;;7.40;68.30;;;;;;5094263;28;20032;-73
2024/01/27 12:39:38;;;;;;;5.88;4.78;;;7.40;68.30;;;;;;5076012;28;20103;-73
2024/01/27 12:42:04;;;;;;;5.55;4.43;;;7.40;68.30;;;;;;5075424;28;20020;-73
2024/01/27 12:44:30;;;;;;;5.93;4.72;;;7.40;68.40;;;;;;5075168;28;20016;-73
2024/01/27 12:46:57;;;;;;;5.22;4.57;;;7.50;68.40;;;;;;5076210;28;20362;-74
2024/01/27 12:49:23;;;;;;;5.40;4.55;;;7.40;68.30;;;;;;5078845;28;20115;-74
2024/01/27 12:51:49;;;;;;;5.88;4.60;;;7.50;68.30;;;;;;5096945;28;20030;-76
2024/01/27 12:54:16;;;;;;;5.40;4.25;;;7.50;68.30;;;;;;5097842;28;20098;-73
2024/01/27 12:56:44;;;;;;;5.30;4.40;;;7.50;68.20;;;;;;5097190;28;20055;-74
2024/01/27 12:59:11;;;;;;;4.40;3.85;;;7.50;68.80;;;;;;5097788;28;20123;-74
2024/01/27 13:01:37;;;;;;;4.95;4.30;;;7.50;68.10;;;;;;5097088;28;20153;-75
2024/01/27 13:04:02;;;;;;;5.97;5.07;;;7.50;68.20;;;;;;5078332;28;20078;-74
2024/01/27 13:06:28;;;;;;;5.03;4.10;;;7.50;68.20;;;;;;5078817;28;20024;-74
2024/01/27 13:08:54;;;;;;;5.15;4.30;;;7.40;68.20;;;;;;5078642;28;20504;-73